Time;durP1;ratioP1;P1;durP2;ratioP2;P2;SDS_P1;SDS_P2;PMS_P1;PMS_P2;Temp;Humidity;BMP_temperature;BMP_pressure;BME280_temperature;BME280_humidity;BME280_pressure;Samples;Min_cycle;Max_cycle;Signal;HPM_P1;HPM_P2
2022/06/30 00:01:26;;;;;;;2.70;1.70;;;24.80;50.10;23.70;100843.00;;;;5062942;28;20044;-71
2022/06/30 00:04:12;;;;;;;1.80;1.65;;;24.80;50.00;23.70;100849.00;;;;5043628;28;20052;-71
2022/06/30 00:06:58;;;;;;;1.73;1.63;;;24.80;50.00;23.70;100845.00;;;;5064526;28;20055;-71
2022/06/30 00:09:44;;;;;;;2.15;1.95;;;24.80;50.10;23.70;100844.00;;;;5063358;28;20033;-71
2022/06/30 00:12:30;;;;;;;2.72;2.53;;;24.80;50.10;23.70;100846.00;;;;5062074;28;20047;-71
2022/06/30 00:15:16;;;;;;;2.20;2.00;;;24.80;50.00;23.70;100845.00;;;;5060138;28;20115;-72
2022/06/30 00:18:02;;;;;;;1.75;1.65;;;24.80;50.00;23.70;100849.00;;;;5059656;28;20052;-71
2022/06/30 00:20:48;;;;;;;2.17;1.98;;;24.80;50.00;23.70;100849.00;;;;5064396;28;20056;-72
2022/06/30 00:23:35;;;;;;;1.77;1.65;;;24.80;50.10;23.70;100844.00;;;;5059574;28;20036;-72
2022/06/30 00:26:21;;;;;;;1.90;1.80;;;24.80;50.10;23.70;100849.00;;;;5045195;28;20036;-72
2022/06/30 00:29:07;;;;;;;2.25;1.80;;;24.80;50.00;23.70;100839.00;;;;5059115;28;20398;-71
2022/06/30 00:31:53;;;;;;;1.85;1.75;;;24.80;49.90;23.70;100827.00;;;;5055853;28;20119;-72
2022/06/30 00:34:39;;;;;;;3.00;1.63;;;24.80;49.90;23.70;100831.00;;;;5061525;28;20406;-72
2022/06/30 00:37:25;;;;;;;2.13;1.85;;;24.80;50.00;23.70;100826.00;;;;5065561;28;20037;-72
2022/06/30 00:40:11;;;;;;;1.83;1.73;;;24.80;50.10;23.70;100821.00;;;;5065480;28;20338;-71
2022/06/30 00:42:57;;;;;;;1.70;1.60;;;24.80;50.10;23.70;100816.00;;;;5066599;28;20409;-71
2022/06/30 00:45:45;;;;;;;1.95;1.70;;;24.80;50.10;23.70;100813.00;;;;5063208;28;20045;-72
2022/06/30 00:48:31;;;;;;;2.30;2.10;;;24.70;50.10;23.70;100817.00;;;;5046236;28;20557;-71
2022/06/30 00:51:17;;;;;;;2.40;1.58;;;24.80;50.00;23.70;100819.00;;;;5046442;28;20094;-72
2022/06/30 00:54:04;;;;;;;3.22;1.85;;;24.80;50.10;23.70;100813.00;;;;5064925;28;20044;-71
2022/06/30 00:56:51;;;;;;;1.80;1.55;;;24.80;50.20;23.70;100813.00;;;;5036257;28;20276;-71
2022/06/30 00:59:38;;;;;;;1.98;1.70;;;24.80;50.30;23.70;100815.00;;;;5045009;28;20497;-72
2022/06/30 01:02:25;;;;;;;2.22;2.03;;;24.80;50.20;23.70;100802.00;;;;5049038;28;20148;-71
2022/06/30 01:05:11;;;;;;;1.75;1.65;;;24.80;50.20;23.70;100796.00;;;;5044780;28;20029;-71
2022/06/30 01:07:57;;;;;;;2.38;1.90;;;24.80;50.30;23.70;100793.00;;;;5035509;28;20449;-71
2022/06/30 01:13:49;;;;;;;3.08;2.20;;;24.80;50.30;23.70;100801.00;;;;5065374;28;20044;-71
2022/06/30 01:16:38;;;;;;;2.53;1.92;;;24.80;50.30;23.70;100796.00;;;;5031577;28;20115;-71
2022/06/30 01:19:24;;;;;;;2.40;1.55;;;24.80;50.40;23.70;100796.00;;;;5048619;28;20032;-71
2022/06/30 01:22:10;;;;;;;2.42;2.20;;;24.80;50.40;23.70;100787.00;;;;5060701;28;20093;-71
2022/06/30 01:24:56;;;;;;;3.33;1.88;;;24.80;50.30;23.70;100788.00;;;;5064454;28;20485;-71
2022/06/30 01:27:42;;;;;;;1.90;1.70;;;24.80;50.30;23.70;100796.00;;;;5062146;28;20036;-71
2022/06/30 01:30:28;;;;;;;2.42;2.08;;;24.80;50.30;23.70;100796.00;;;;5066399;28;20489;-71
2022/06/30 01:33:14;;;;;;;1.73;1.63;;;24.80;50.30;23.70;100787.00;;;;5048795;28;20390;-72
2022/06/30 01:36:00;;;;;;;1.95;1.75;;;24.80;50.20;23.70;100790.00;;;;5059520;28;20044;-71
2022/06/30 01:38:47;;;;;;;1.83;1.73;;;24.80;50.20;23.70;100789.00;;;;5049452;28;20041;-71
2022/06/30 01:41:33;;;;;;;2.10;1.90;;;24.80;50.20;23.70;100786.00;;;;5066881;28;20474;-72
2022/06/30 01:44:19;;;;;;;2.10;1.90;;;24.80;50.30;23.70;100792.00;;;;5064187;28;20048;-71
2022/06/30 01:47:05;;;;;;;2.17;1.98;;;24.70;50.30;23.70;100783.00;;;;5062177;28;20049;-71
2022/06/30 01:49:51;;;;;;;2.10;1.90;;;24.80;50.30;23.70;100780.00;;;;5044351;28;20041;-71
2022/06/30 01:52:37;;;;;;;2.67;1.83;;;24.80;50.30;23.70;100780.00;;;;5061936;28;20032;-71
2022/06/30 01:55:23;;;;;;;4.22;1.80;;;24.80;50.30;23.70;100774.00;;;;5046321;28;20044;-71
2022/06/30 01:58:09;;;;;;;2.95;1.77;;;24.80;50.20;23.70;100774.00;;;;5046044;28;20047;-71
2022/06/30 02:00:55;;;;;;;3.42;2.25;;;24.80;50.30;23.70;100758.00;;;;5042332;28;20383;-71
2022/06/30 02:03:41;;;;;;;2.10;1.92;;;24.80;50.30;23.70;100772.00;;;;5066607;28;20106;-71
2022/06/30 02:06:27;;;;;;;2.80;2.05;;;24.80;50.30;23.70;100775.00;;;;5061723;28;20409;-71
2022/06/30 02:09:13;;;;;;;2.08;1.80;;;24.80;50.30;23.70;100770.00;;;;5059445;28;20098;-71
2022/06/30 02:15:05;;;;;;;4.70;2.00;;;24.80;50.30;23.70;100777.00;;;;5058972;28;20079;-72
2022/06/30 02:17:52;;;;;;;2.17;1.98;;;24.80;50.30;23.70;100774.00;;;;5062839;28;20040;-71
2022/06/30 02:20:38;;;;;;;;;;;24.80;50.30;23.70;100767.00;;;;5048171;28;20040;-71
2022/06/30 02:23:24;;;;;;;1.92;1.73;;;24.80;50.30;23.70;100780.00;;;;5046152;28;19916;-71
2022/06/30 02:26:11;;;;;;;2.13;1.90;;;24.80;50.20;23.70;100774.00;;;;5063960;28;20102;-72
2022/06/30 02:28:57;;;;;;;2.72;2.10;;;24.80;50.20;23.70;100771.00;;;;5065120;28;20497;-71
2022/06/30 02:31:43;;;;;;;2.70;1.65;;;24.80;50.30;23.70;100767.00;;;;5057339;28;20029;-71
2022/06/30 02:34:29;;;;;;;2.15;1.95;;;24.80;50.40;23.70;100771.00;;;;5062014;28;20037;-71
2022/06/30 02:37:15;;;;;;;2.40;2.20;;;24.80;50.40;23.70;100765.00;;;;5044434;28;20397;-71
2022/06/30 02:40:01;;;;;;;2.08;1.88;;;24.80;50.50;23.70;100761.00;;;;5059187;28;20551;-72
2022/06/30 02:42:47;;;;;;;1.75;1.60;;;24.80;50.40;23.70;100762.00;;;;5064035;28;20368;-71
2022/06/30 02:45:33;;;;;;;2.30;2.10;;;24.80;50.40;23.70;100762.00;;;;5057909;28;20036;-71
2022/06/30 02:48:19;;;;;;;2.30;2.10;;;24.80;50.50;23.70;100753.00;;;;5063303;28;20464;-71
2022/06/30 02:51:05;;;;;;;2.60;2.33;;;24.80;50.50;23.70;100760.00;;;;5062258;28;20044;-72
2022/06/30 02:53:51;;;;;;;2.05;1.95;;;24.80;50.40;23.70;100755.00;;;;5048921;28;20502;-71
2022/06/30 02:56:37;;;;;;;2.22;2.03;;;24.80;50.40;23.70;100754.00;;;;5048410;28;20040;-72
2022/06/30 02:59:23;;;;;;;2.28;2.08;;;24.80;50.50;23.70;100754.00;;;;5058915;28;20044;-72
2022/06/30 03:02:09;;;;;;;2.20;2.00;;;24.80;50.50;23.70;100753.00;;;;5058757;28;20051;-71
2022/06/30 03:04:55;;;;;;;1.92;1.83;;;24.80;50.50;23.70;100752.00;;;;5059447;28;20046;-72
2022/06/30 03:07:42;;;;;;;2.65;2.45;;;24.80;50.40;23.70;100754.00;;;;5065000;28;20048;-71
2022/06/30 03:10:28;;;;;;;2.20;1.88;;;24.80;50.40;23.70;100756.00;;;;5059941;28;20041;-71
2022/06/30 03:13:14;;;;;;;2.40;2.20;;;24.70;50.60;23.70;100748.00;;;;5060249;28;20705;-72
2022/06/30 03:16:01;;;;;;;2.10;1.90;;;24.80;50.60;23.70;100755.00;;;;5057348;28;20040;-72
2022/06/30 03:18:47;;;;;;;;;;;24.80;50.60;23.70;100752.00;;;;5060827;28;20098;-71
2022/06/30 03:21:33;;;;;;;2.40;2.15;;;24.80;50.50;23.70;100759.00;;;;5042341;28;19967;-72
2022/06/30 03:24:20;;;;;;;2.88;2.38;;;24.80;50.60;23.70;100750.00;;;;5058235;28;20403;-72
2022/06/30 03:27:06;;;;;;;2.20;2.00;;;24.80;50.60;23.70;100760.00;;;;5040641;28;20124;-72
2022/06/30 03:29:52;;;;;;;2.13;1.90;;;24.80;51.30;23.70;100754.00;;;;5058691;28;20033;-72
2022/06/30 03:32:39;;;;;;;1.95;1.85;;;24.80;50.70;23.70;100757.00;;;;5062615;28;20063;-72
2022/06/30 03:35:25;;;;;;;2.22;2.00;;;24.80;50.70;23.70;100752.00;;;;5059963;28;20557;-72
2022/06/30 03:38:11;;;;;;;1.85;1.70;;;24.80;50.70;23.70;100758.00;;;;5064007;28;20041;-72
2022/06/30 03:40:57;;;;;;;2.30;2.10;;;24.70;50.80;23.70;100753.00;;;;5055016;28;20044;-72
2022/06/30 03:43:43;;;;;;;2.70;2.25;;;24.80;50.80;23.70;100756.00;;;;5059797;28;20474;-72
2022/06/30 03:46:29;;;;;;;2.40;2.20;;;24.80;51.30;23.70;100752.00;;;;5060575;28;20048;-72
2022/06/30 03:49:16;;;;;;;2.50;2.00;;;24.70;50.50;23.70;100755.00;;;;5059934;28;20378;-72
2022/06/30 03:52:03;;;;;;;2.10;1.90;;;24.80;50.60;23.70;100756.00;;;;5057944;28;20050;-72
2022/06/30 03:54:49;;;;;;;1.90;1.80;;;24.80;50.70;23.70;100760.00;;;;5039068;28;20043;-72
2022/06/30 03:57:35;;;;;;;2.20;2.00;;;24.80;50.70;23.70;100757.00;;;;5061448;28;20036;-72
2022/06/30 04:00:22;;;;;;;3.28;1.98;;;24.80;50.70;23.70;100764.00;;;;5060264;28;20041;-72
2022/06/30 04:03:09;;;;;;;2.42;2.17;;;24.80;50.70;23.70;100752.00;;;;5048224;28;20078;-72
2022/06/30 04:05:55;;;;;;;2.20;1.98;;;24.80;50.70;23.70;100756.00;;;;5049605;28;20243;-72
2022/06/30 04:08:41;;;;;;;2.75;2.17;;;24.70;50.60;23.70;100756.00;;;;5055614;28;20040;-72
2022/06/30 04:11:27;;;;;;;3.15;2.17;;;24.70;50.50;23.70;100753.00;;;;5047293;28;20029;-72
2022/06/30 04:14:13;;;;;;;2.28;2.08;;;24.80;50.50;23.70;100754.00;;;;5062752;28;20044;-72
2022/06/30 04:17:00;;;;;;;2.38;2.17;;;24.80;50.60;23.70;100756.00;;;;5066700;28;20395;-72
2022/06/30 04:19:46;;;;;;;2.42;1.75;;;24.80;50.50;23.70;100755.00;;;;5049078;28;20037;-72
2022/06/30 04:22:35;;;;;;;2.30;2.10;;;24.80;50.60;23.70;100759.00;;;;5064402;28;20482;-71
2022/06/30 04:25:21;;;;;;;2.42;2.22;;;24.80;50.60;23.70;100755.00;;;;5060462;28;20040;-72
2022/06/30 04:28:07;;;;;;;2.22;2.03;;;24.70;50.50;23.70;100755.00;;;;5064511;28;20040;-71
2022/06/30 04:33:57;;;;;;;3.15;2.30;;;24.80;50.60;23.70;100767.00;;;;5068559;28;20032;-72
2022/06/30 04:36:43;;;;;;;2.55;2.33;;;24.70;50.50;23.70;100761.00;;;;5063230;28;20044;-71
2022/06/30 04:39:29;;;;;;;2.30;2.10;;;24.70;50.60;23.70;100756.00;;;;5065389;28;20111;-71
2022/06/30 04:42:15;;;;;;;2.20;2.05;;;24.70;50.60;23.70;100755.00;;;;5063726;28;20067;-72
2022/06/30 04:45:02;;;;;;;3.33;2.08;;;24.80;50.80;23.70;100753.00;;;;5063642;28;20051;-71
2022/06/30 04:47:48;;;;;;;3.42;2.40;;;24.80;50.70;23.70;100747.00;;;;5052490;28;20131;-71
2022/06/30 04:50:34;;;;;;;2.78;2.25;;;24.80;50.70;23.70;100749.00;;;;5061581;28;20473;-71
2022/06/30 04:53:20;;;;;;;2.70;2.50;;;24.80;50.70;23.70;100741.00;;;;5063684;28;20033;-71
2022/06/30 04:56:08;;;;;;;2.30;2.10;;;24.80;50.80;23.70;100740.00;;;;5067978;28;20048;-71
2022/06/30 04:58:54;;;;;;;2.78;2.15;;;24.80;50.70;23.70;100741.00;;;;5061256;28;20456;-71
2022/06/30 05:01:40;;;;;;;2.13;1.92;;;24.80;50.80;23.70;100740.00;;;;5067983;28;20047;-71
2022/06/30 05:04:26;;;;;;;2.67;2.00;;;24.80;50.80;23.70;100735.00;;;;5066617;28;20391;-71
2022/06/30 05:07:12;;;;;;;2.35;2.15;;;24.80;50.80;23.70;100735.00;;;;5067448;28;20466;-71
2022/06/30 05:09:58;;;;;;;2.50;2.30;;;24.80;50.80;23.70;100726.00;;;;5047476;28;20033;-71
2022/06/30 05:12:44;;;;;;;2.28;2.08;;;24.80;50.90;23.70;100723.00;;;;5066635;28;20036;-72
2022/06/30 05:15:30;;;;;;;2.90;1.92;;;24.60;50.70;23.70;100724.00;;;;5067582;28;20091;-72
2022/06/30 05:18:16;;;;;;;2.45;2.25;;;24.80;50.90;23.70;100722.00;;;;5063567;28;20326;-71
2022/06/30 05:21:02;;;;;;;2.60;2.40;;;24.70;50.80;23.70;100736.00;;;;5039238;28;20053;-71
2022/06/30 05:26:53;;;;;;;2.13;1.92;;;24.70;50.90;23.70;100729.00;;;;5065337;28;20106;-71
2022/06/30 05:29:39;;;;;;;2.35;2.15;;;24.70;50.80;23.70;100732.00;;;;5062736;28;20375;-71
2022/06/30 05:32:25;;;;;;;2.15;2.05;;;24.70;50.80;23.70;100733.00;;;;5062077;28;20569;-71
2022/06/30 05:35:11;;;;;;;3.35;2.28;;;24.70;50.80;23.70;100727.00;;;;5066903;28;20039;-71
2022/06/30 05:37:57;;;;;;;2.63;2.42;;;24.70;50.80;23.70;100727.00;;;;5066380;28;20120;-72
2022/06/30 05:40:45;;;;;;;2.53;2.20;;;24.80;50.90;23.70;100727.00;;;;5060925;28;20493;-72
2022/06/30 05:43:31;;;;;;;2.70;1.90;;;24.80;50.80;23.70;100728.00;;;;5043428;28;20098;-72
2022/06/30 05:46:18;;;;;;;2.35;2.15;;;24.80;50.90;23.70;100725.00;;;;5062590;28;20032;-72
2022/06/30 05:49:06;;;;;;;2.88;2.60;;;24.80;51.00;23.70;100731.00;;;;5059642;28;20040;-71
2022/06/30 05:51:52;;;;;;;2.50;2.28;;;24.70;50.90;23.70;100725.00;;;;5057302;28;20115;-71
2022/06/30 05:54:38;;;;;;;2.55;2.35;;;24.80;51.00;23.70;100726.00;;;;5037807;28;20048;-72
2022/06/30 05:57:24;;;;;;;3.22;2.00;;;24.80;51.70;23.70;100725.00;;;;5058425;28;20040;-71
2022/06/30 06:00:11;;;;;;;3.10;2.53;;;24.70;50.90;23.70;100726.00;;;;5062566;28;20074;-72
2022/06/30 06:02:57;;;;;;;3.47;2.78;;;24.70;50.90;23.70;100724.00;;;;5058322;28;20470;-71
2022/06/30 06:05:44;;;;;;;3.72;2.35;;;24.70;51.00;23.70;100727.00;;;;5059171;28;20394;-71
2022/06/30 06:08:30;;;;;;;3.55;2.47;;;24.80;51.00;23.70;100729.00;;;;5063115;28;20581;-72
2022/06/30 06:11:16;;;;;;;3.40;2.45;;;24.80;51.00;23.70;100728.00;;;;5059512;28;20048;-72
2022/06/30 06:14:02;;;;;;;5.22;2.67;;;24.70;51.00;23.70;100729.00;;;;5062931;28;20283;-72
2022/06/30 06:16:48;;;;;;;2.47;2.28;;;24.80;51.00;23.70;100727.00;;;;5060485;28;20051;-71
2022/06/30 06:19:34;;;;;;;4.03;2.88;;;24.80;51.00;23.70;100728.00;;;;5062860;28;20101;-72
2022/06/30 06:22:20;;;;;;;3.63;2.28;;;24.80;51.00;23.70;100731.00;;;;5059530;28;20050;-72
2022/06/30 06:25:06;;;;;;;2.38;2.17;;;24.80;51.00;23.70;100731.00;;;;5042801;28;20060;-72
2022/06/30 06:30:58;;;;;;;2.33;1.98;;;24.80;51.00;23.70;100725.00;;;;5058422;28;20274;-71
2022/06/30 06:33:46;;;;;;;2.70;2.47;;;24.80;50.90;23.70;100721.00;;;;5063230;28;20110;-71
2022/06/30 06:36:32;;;;;;;2.67;2.40;;;24.70;50.90;23.70;100717.00;;;;5057544;28;20044;-71
2022/06/30 06:39:18;;;;;;;3.20;2.40;;;24.80;51.00;23.70;100723.00;;;;5059833;28;20043;-71
2022/06/30 06:42:04;;;;;;;2.90;2.70;;;24.80;50.90;23.70;100720.00;;;;5062680;28;20117;-72
2022/06/30 06:44:50;;;;;;;2.20;1.92;;;24.80;51.00;23.70;100725.00;;;;5057990;28;20049;-72
2022/06/30 06:47:36;;;;;;;2.70;2.50;;;24.70;50.90;23.70;100726.00;;;;5057111;28;20062;-71
2022/06/30 06:50:22;;;;;;;2.92;2.17;;;24.70;50.90;23.70;100721.00;;;;5043093;28;20043;-71
2022/06/30 06:53:08;;;;;;;2.83;2.63;;;24.70;50.90;23.70;100727.00;;;;5061826;28;20488;-71
2022/06/30 06:55:55;;;;;;;2.92;2.50;;;24.70;50.90;23.70;100727.00;;;;5045221;28;20045;-71
2022/06/30 06:58:41;;;;;;;3.03;2.30;;;24.80;51.00;23.70;100725.00;;;;5067309;28;20398;-71
2022/06/30 07:01:27;;;;;;;3.10;2.80;;;24.80;50.90;23.70;100729.00;;;;5055816;28;20462;-71
2022/06/30 07:04:13;;;;;;;2.97;2.53;;;24.80;51.00;23.70;100736.00;;;;5066574;28;20101;-71
2022/06/30 07:06:59;;;;;;;3.42;2.47;;;24.80;51.00;23.70;100727.00;;;;5039629;28;20048;-71
2022/06/30 07:09:45;;;;;;;5.35;2.38;;;24.70;51.00;23.70;100734.00;;;;5062884;28;20449;-71
2022/06/30 07:12:31;;;;;;;3.42;2.78;;;24.80;51.10;23.70;100733.00;;;;5045551;28;20211;-72
2022/06/30 07:15:18;;;;;;;2.90;2.40;;;24.80;51.20;23.70;100742.00;;;;5057975;28;20474;-71
2022/06/30 07:18:04;;;;;;;2.33;2.13;;;24.80;51.10;23.70;100736.00;;;;5062736;28;20257;-71
2022/06/30 07:20:50;;;;;;;2.85;2.60;;;24.70;51.00;23.70;100736.00;;;;5060483;28;20491;-71
2022/06/30 07:23:36;;;;;;;4.45;2.15;;;24.80;51.10;23.70;100742.00;;;;5046276;28;20043;-71
2022/06/30 07:26:22;;;;;;;2.75;2.10;;;24.80;51.30;23.70;100741.00;;;;5044673;28;20049;-71
2022/06/30 07:29:08;;;;;;;2.60;2.40;;;24.80;51.00;23.70;100743.00;;;;5061738;28;20506;-71
2022/06/30 07:31:54;;;;;;;2.83;2.60;;;24.80;51.10;23.70;100744.00;;;;5065104;28;20062;-71
2022/06/30 07:34:40;;;;;;;4.07;2.38;;;24.80;51.10;23.70;100741.00;;;;5044554;28;20426;-72
2022/06/30 07:37:26;;;;;;;2.58;2.38;;;24.80;51.10;23.70;100742.00;;;;5064744;28;20062;-71
2022/06/30 07:40:14;;;;;;;3.05;2.60;;;24.80;51.20;23.70;100744.00;;;;5056098;28;20075;-71
2022/06/30 07:43:00;;;;;;;2.75;2.55;;;24.80;51.20;23.70;100741.00;;;;5062375;28;20050;-71
2022/06/30 07:45:46;;;;;;;3.40;2.60;;;24.80;51.10;23.70;100740.00;;;;5065404;28;20151;-71
2022/06/30 07:48:32;;;;;;;3.00;2.70;;;24.70;51.10;23.70;100741.00;;;;5070479;28;20049;-71
2022/06/30 07:51:20;;;;;;;2.75;2.55;;;24.80;51.10;23.70;100742.00;;;;5069858;28;20040;-72
2022/06/30 07:54:06;;;;;;;;;;;24.80;51.20;23.70;100743.00;;;;5069005;28;20101;-72
2022/06/30 07:56:52;;;;;;;2.70;2.50;;;24.80;51.10;23.70;100740.00;;;;5068714;28;20367;-71
2022/06/30 07:59:39;;;;;;;3.13;2.72;;;24.90;51.10;23.70;100741.00;;;;5067024;28;20040;-72
2022/06/30 08:02:25;;;;;;;3.20;2.73;;;24.80;51.10;23.70;100737.00;;;;5065774;28;20032;-72
2022/06/30 08:05:11;;;;;;;2.75;2.55;;;24.80;51.10;23.70;100733.00;;;;5067847;28;20498;-71
2022/06/30 08:07:57;;;;;;;3.80;2.60;;;24.80;51.10;23.70;100733.00;;;;5050830;28;20401;-72
2022/06/30 08:10:43;;;;;;;2.90;2.33;;;24.80;51.10;23.70;100738.00;;;;5065899;28;20054;-71
2022/06/30 08:13:29;;;;;;;2.75;2.55;;;24.80;51.10;23.70;100728.00;;;;5044898;28;20044;-72
2022/06/30 08:16:15;;;;;;;3.10;2.35;;;24.80;51.10;23.70;100727.00;;;;5043055;28;20563;-71
2022/06/30 08:19:02;;;;;;;2.78;2.53;;;24.80;51.10;23.70;100729.00;;;;5045229;28;20047;-72
2022/06/30 08:21:49;;;;;;;4.07;2.28;;;24.80;51.10;23.70;100729.00;;;;5066496;28;20127;-71
2022/06/30 08:24:35;;;;;;;3.95;2.80;;;24.80;51.20;23.70;100729.00;;;;5064942;28;20044;-71
2022/06/30 08:27:21;;;;;;;3.38;2.72;;;24.80;51.10;23.70;100730.00;;;;5047330;28;20857;-71
2022/06/30 08:30:08;;;;;;;4.10;2.60;;;24.80;51.20;23.70;100731.00;;;;5048574;28;20043;-71
2022/06/30 08:32:54;;;;;;;2.90;2.60;;;24.80;51.10;23.70;100730.00;;;;5065808;28;20615;-71
2022/06/30 08:35:40;;;;;;;2.63;2.40;;;24.80;51.20;23.70;100731.00;;;;5064681;28;20052;-71
2022/06/30 08:38:27;;;;;;;3.40;3.10;;;24.80;51.30;23.70;100734.00;;;;5063594;28;20118;-71
2022/06/30 08:44:21;;;;;;;3.15;2.85;;;24.80;51.40;23.70;100726.00;;;;5060895;28;20087;-71
2022/06/30 08:47:08;;;;;;;3.03;2.63;;;24.80;51.40;23.70;100725.00;;;;5063952;28;20416;-72
2022/06/30 08:49:54;;;;;;;3.17;2.88;;;24.80;51.40;23.70;100725.00;;;;5063545;28;20033;-71
2022/06/30 08:52:48;;;;;;;4.30;2.65;;;24.80;51.30;23.70;100728.00;;;;5039617;28;20033;-72
2022/06/30 08:55:34;;;;;;;3.13;2.65;;;24.70;51.30;23.70;100721.00;;;;5043702;28;20059;-72
2022/06/30 08:58:20;;;;;;;3.35;2.80;;;24.80;51.30;23.70;100718.00;;;;5048358;28;20080;-71
2022/06/30 09:01:06;;;;;;;2.70;2.50;;;24.80;51.30;23.70;100722.00;;;;5046897;28;20071;-71
2022/06/30 09:03:52;;;;;;;3.40;2.78;;;24.80;51.30;23.70;100721.00;;;;5065079;28;20052;-71
2022/06/30 09:06:41;;;;;;;3.13;2.70;;;24.80;51.30;23.70;100725.00;;;;5059524;28;20043;-71
2022/06/30 09:09:27;;;;;;;2.90;2.67;;;24.80;51.30;23.70;100729.00;;;;5062605;28;20482;-72
2022/06/30 09:12:15;;;;;;;2.78;2.58;;;24.80;51.30;23.70;100726.00;;;;5065614;28;20036;-71
2022/06/30 09:15:01;;;;;;;5.18;2.92;;;24.80;51.50;23.70;100720.00;;;;5061768;28;20591;-71
2022/06/30 09:17:47;;;;;;;3.40;3.03;;;24.80;52.10;23.70;100724.00;;;;5064270;28;20431;-71
2022/06/30 09:20:38;;;;;;;3.10;2.80;;;24.80;51.30;23.70;100727.00;;;;5056634;28;20266;-71
2022/06/30 09:23:30;;;;;;;3.20;2.90;;;24.80;51.30;23.70;100716.00;;;;5038282;28;20052;-72
2022/06/30 09:26:18;;;;;;;3.25;2.83;;;24.80;51.40;23.70;100720.00;;;;5062288;28;20045;-71
2022/06/30 09:29:04;;;;;;;3.83;3.00;;;24.80;51.40;23.70;100718.00;;;;5063118;28;20049;-71
2022/06/30 09:31:50;;;;;;;3.13;2.83;;;24.80;51.40;23.70;100711.00;;;;5045519;28;20036;-71
2022/06/30 09:34:38;;;;;;;4.22;3.10;;;24.80;51.40;23.70;100716.00;;;;5044245;28;20029;-71
2022/06/30 09:37:24;;;;;;;4.85;3.05;;;24.80;51.50;23.70;100719.00;;;;5049990;28;20115;-72
2022/06/30 09:40:11;;;;;;;3.17;2.88;;;24.80;51.60;23.70;100721.00;;;;5047475;28;20444;-72
2022/06/30 09:42:57;;;;;;;3.55;3.22;;;24.80;51.50;23.70;100717.00;;;;5061830;28;20032;-73
2022/06/30 09:45:43;;;;;;;3.30;3.00;;;24.80;51.50;23.70;100710.00;;;;5059462;28;20052;-72
2022/06/30 09:48:32;;;;;;;3.13;2.83;;;24.80;51.50;23.70;100712.00;;;;5062079;28;20121;-72
2022/06/30 09:51:18;;;;;;;4.07;3.40;;;24.80;51.50;23.70;100711.00;;;;5033429;28;20098;-76
2022/06/30 09:54:09;;;;;;;4.50;3.03;;;24.80;51.40;23.70;100715.00;;;;5037233;28;20147;-72
2022/06/30 09:57:06;;;;;;;3.78;3.17;;;24.80;51.40;23.70;100711.00;;;;5048316;28;20552;-72
2022/06/30 10:00:09;;;;;;;3.25;2.95;;;24.80;51.50;23.70;100708.00;;;;5063736;28;20040;-72
2022/06/30 10:03:02;;;;;;;4.10;2.97;;;24.80;51.50;23.70;100713.00;;;;5062778;28;20048;-72
2022/06/30 10:05:50;;;;;;;3.30;3.00;;;24.90;51.50;23.70;100703.00;;;;5035303;28;21835;-72
2022/06/30 10:08:36;;;;;;;3.50;3.20;;;24.90;51.70;23.70;100701.00;;;;5058129;28;20048;-72
2022/06/30 10:11:25;;;;;;;3.88;3.55;;;24.90;51.60;23.80;100705.00;;;;5043475;28;20036;-72
2022/06/30 10:14:11;;;;;;;3.17;2.88;;;24.80;51.50;23.70;100696.00;;;;5040663;28;20368;-72
2022/06/30 10:16:57;;;;;;;3.45;3.10;;;24.90;51.50;23.70;100690.00;;;;5036455;28;20050;-72
2022/06/30 10:19:43;;;;;;;3.40;3.10;;;24.90;51.50;23.70;100691.00;;;;5043386;28;20045;-72
2022/06/30 10:22:30;;;;;;;3.38;3.08;;;24.90;51.60;23.80;100694.00;;;;5044594;28;20032;-72
2022/06/30 10:25:16;;;;;;;3.42;3.13;;;24.90;51.60;23.70;100687.00;;;;5045019;28;20473;-73
2022/06/30 10:28:03;;;;;;;3.95;3.38;;;24.90;51.60;23.80;100687.00;;;;5061219;28;20353;-73
2022/06/30 10:31:20;;;;;;;3.42;3.13;;;24.80;51.60;23.80;100680.00;;;;5037282;28;20145;-73
2022/06/30 10:34:25;;;;;;;3.92;3.63;;;24.80;51.60;23.70;100686.00;;;;5061979;28;20063;-72
2022/06/30 10:37:32;;;;;;;4.28;3.40;;;24.80;51.70;23.70;100686.00;;;;5037517;28;20036;-72
2022/06/30 10:41:00;;;;;;;3.47;3.17;;;24.80;51.60;23.70;100682.00;;;;5037159;28;20043;-73
2022/06/30 10:44:05;;;;;;;3.85;2.97;;;24.90;51.70;23.70;100675.00;;;;5051722;28;20041;-72
2022/06/30 10:46:51;;;;;;;3.63;3.30;;;24.80;51.50;23.70;100672.00;;;;5060630;28;20048;-73
2022/06/30 10:49:52;;;;;;;3.80;3.30;;;24.90;51.60;23.70;100682.00;;;;5053122;28;20211;-73
2022/06/30 10:52:38;;;;;;;4.70;3.15;;;24.90;51.50;23.70;100675.00;;;;5029433;28;20040;-73
2022/06/30 10:55:24;;;;;;;4.88;3.10;;;24.90;51.50;23.70;100674.00;;;;5046955;28;20418;-77
2022/06/30 10:58:10;;;;;;;4.00;3.60;;;24.80;51.40;23.80;100674.00;;;;5065097;28;20040;-73
2022/06/30 11:00:58;;;;;;;3.60;3.30;;;24.80;51.40;23.80;100677.00;;;;5044279;28;20059;-73
2022/06/30 11:03:50;;;;;;;3.60;3.30;;;24.90;51.50;23.80;100670.00;;;;5055845;28;20040;-73
2022/06/30 11:06:56;;;;;;;4.30;3.90;;;24.80;51.50;23.80;100663.00;;;;5062658;28;20474;-73
2022/06/30 11:09:48;;;;;;;4.20;3.80;;;24.90;51.60;23.70;100670.00;;;;5047134;28;20091;-71
2022/06/30 11:12:37;;;;;;;4.15;3.70;;;24.80;51.80;23.70;100671.00;;;;5061671;28;20033;-71
2022/06/30 11:15:23;;;;;;;4.88;4.38;;;24.90;52.00;23.80;100665.00;;;;5056311;28;20048;-71
2022/06/30 11:18:09;;;;;;;5.82;4.80;;;24.90;52.10;23.80;100670.00;;;;5027354;28;20140;-71
2022/06/30 11:20:55;;;;;;;4.97;4.57;;;24.80;52.30;23.80;100672.00;;;;5035659;28;20114;-71
2022/06/30 11:23:47;;;;;;;5.47;4.07;;;24.90;52.40;23.80;100671.00;;;;5046824;28;20049;-71
2022/06/30 11:27:36;;;;;;;4.53;4.10;;;24.90;52.40;23.80;100663.00;;;;5044198;28;20044;-71
2022/06/30 11:29:49;;;;;;;4.95;4.45;;;24.80;52.40;23.80;100666.00;;;;5033627;28;20057;-71
2022/06/30 11:32:35;;;;;;;5.35;4.35;;;24.80;52.40;23.80;100662.00;;;;5059006;28;20547;-71
2022/06/30 11:35:28;;;;;;;4.55;4.15;;;24.90;52.40;23.80;100658.00;;;;5038808;28;20048;-71
2022/06/30 11:38:14;;;;;;;5.38;4.15;;;24.80;52.70;23.80;100652.00;;;;5046618;28;20044;-71
2022/06/30 11:41:54;;;;;;;5.22;4.28;;;24.90;52.50;23.80;100650.00;;;;5039295;28;20096;-71
2022/06/30 11:44:06;;;;;;;4.32;3.83;;;25.00;52.40;23.80;100650.00;;;;5048074;28;21321;-71
2022/06/30 11:46:57;;;;;;;4.47;3.70;;;24.90;52.30;23.80;100642.00;;;;5057425;28;20047;-71
2022/06/30 11:49:46;;;;;;;4.20;3.80;;;25.00;52.30;23.80;100639.00;;;;5042588;28;20327;-71
2022/06/30 11:52:37;;;;;;;4.22;3.83;;;24.90;52.30;23.80;100636.00;;;;5059031;28;20036;-71
2022/06/30 11:55:27;;;;;;;4.72;4.22;;;25.00;52.30;23.80;100626.00;;;;5058565;28;20115;-71
2022/06/30 11:58:13;;;;;;;3.58;3.28;;;25.00;52.10;23.80;100636.00;;;;5061461;28;20526;-71
2022/06/30 12:01:11;;;;;;;3.78;3.45;;;25.00;51.90;23.80;100635.00;;;;5063214;28;20041;-71
2022/06/30 12:03:57;;;;;;;4.85;4.18;;;25.00;51.80;23.80;100640.00;;;;5048634;28;20044;-71
2022/06/30 12:06:43;;;;;;;5.55;3.80;;;25.00;51.80;23.80;100635.00;;;;5061965;28;20040;-71
2022/06/30 12:09:29;;;;;;;5.57;4.47;;;25.00;51.80;23.80;100630.00;;;;5049667;28;20809;-71
2022/06/30 12:12:18;;;;;;;5.65;4.20;;;24.90;51.70;23.80;100625.00;;;;5059510;28;20323;-71
2022/06/30 12:15:12;;;;;;;4.18;3.80;;;25.00;51.70;23.90;100624.00;;;;5059014;28;20075;-71
2022/06/30 12:17:59;;;;;;;4.55;3.85;;;25.00;51.70;23.90;100627.00;;;;5057500;28;20048;-71
2022/06/30 12:20:45;;;;;;;4.15;3.83;;;25.00;51.70;23.80;100629.00;;;;5030609;28;20120;-71
2022/06/30 12:23:31;;;;;;;5.15;4.20;;;25.00;51.60;23.90;100623.00;;;;5046375;28;20047;-71
2022/06/30 12:26:17;;;;;;;4.50;4.10;;;25.00;51.60;23.90;100626.00;;;;5045729;28;20047;-71
2022/06/30 12:29:13;;;;;;;4.78;3.92;;;25.00;51.50;23.80;100620.00;;;;5042908;28;20405;-71
2022/06/30 12:32:10;;;;;;;5.13;4.63;;;25.00;51.50;23.80;100617.00;;;;5043695;28;20517;-71
2022/06/30 12:35:03;;;;;;;6.13;4.63;;;25.00;51.40;23.90;100622.00;;;;5064423;28;20045;-71